createdAt,value
2022-08-20T00:12:13.245Z,75
2022-08-20T00:35:18.559Z,75
2022-08-20T01:06:20.739Z,76
2022-08-20T01:22:03.114Z,76
2022-08-20T02:00:28.195Z,77.5
2022-08-20T02:23:56.127Z,78
2022-08-20T03:02:43.870Z,79
2022-08-20T03:33:34.771Z,79.5
2022-08-20T03:49:17.184Z,80
2022-08-20T04:20:19.410Z,82
2022-08-20T04:43:47.388Z,82.5
2022-08-20T05:14:38.316Z,83
2022-08-20T06:01:00.322Z,83
2022-08-20T06:16:31.429Z,83.5
2022-08-20T06:55:30.407Z,81.5
2022-08-20T07:11:12.753Z,81
2022-08-20T07:42:14.717Z,78.5
2022-08-20T08:12:53.823Z,75.5
2022-08-20T08:51:41.068Z,76
2022-08-20T09:15:19.926Z,74
2022-08-20T09:30:50.711Z,72.5
2022-08-20T09:54:06.784Z,70.5
2022-08-20T10:25:08.278Z,70
2022-08-20T10:55:58.363Z,69
2022-08-20T11:34:45.191Z,65.5
2022-08-20T11:58:12.641Z,66.5
2022-08-20T12:13:31.957Z,63
2022-08-20T12:44:32.756Z,54
2022-08-20T13:07:48.344Z,54.5
2022-08-20T13:23:29.987Z,52.5
2022-08-20T13:46:34.179Z,53.5
2022-08-20T14:10:00.688Z,48
2022-08-20T14:40:38.513Z,51
2022-08-20T15:11:50.257Z,50
2022-08-20T15:35:03.900Z,30
2022-08-20T15:58:28.171Z,21
2022-08-20T16:21:18.769Z,23.5
2022-08-20T16:52:17.679Z,30
2022-08-20T17:38:47.699Z,41
2022-08-20T17:54:40.465Z,41.5
2022-08-20T18:10:10.726Z,43
2022-08-20T18:56:19.899Z,56.5
2022-08-20T19:11:50.679Z,58.5
2022-08-20T19:58:23.271Z,63.5
2022-08-20T20:14:16.771Z,63.5
2022-08-20T20:37:10.468Z,63
2022-08-20T21:08:34.862Z,64.5
2022-08-20T21:31:51.232Z,66
2022-08-20T21:46:59.562Z,66.5
2022-08-20T22:18:12.771Z,68
2022-08-20T22:57:00.303Z,68
2022-08-20T23:12:42.657Z,68.5
2022-08-20T23:43:22.213Z,69.5
